Terminal Aerodrome Forecast
Issued by NWS Rapid City, SD

Home | Current Version | Previous Version | Graphics & Text | Print | Product List | Glossary On
Versions: 1 2 3 4 5 6 7 8 9 10 11 12 13 14 15
000
FTUS43 KUNR 290500
TAFRAP
TAF
KRAP 290520Z 2906/3006 33032G46KT P6SM SCT050 BKN090
     FM291500 33025G35KT P6SM SKC
     FM292000 34016G26KT P6SM SKC
     FM300000 35011KT P6SM BKN250=

USA.gov is the U.S. government's official web portal to all federal, state and local government web resources and services.